Loda, Illinois
Current Conditions -  °F | °C
As of 3:50 AM on Tuesday 21 Oct 2014 (Local Time) from KTIP Reporting Station
Haze Haze  
Wind Chill: 44°   Ceiling: Unl
Heat Index: 46°   Visibility: 5mi
Dew Point: 43°   Wind: 5mph
Humidity: 90%   Direction: 290°WNW
Pressure: 30.03"   Gusts: NA
Location:  40.52°N, 88.07°W
Report Text: KTIP 210850Z AUTO 29004KT 5SM BR SCT050 08/06 A3003 RMK AO2 T00780062
Loading
Personal Weather Stations






























Interactive Weather Map New forecast layout! Learn more

10-Day Weather Forecast

Advertisements
Track Severe Weather on mobile